ADDS METAR Data INFO
IDs: Format: Raw Decoded Include TAF

Data at: 2054 UTC 26 May 2017

KGGG 261953Z AUTO 20013KT 10SM BKN037 31/23 A2983 RMK AO2 SLP094 T03110233
KGGG 261853Z 20014G24KT 10SM BKN035 31/23 A2984 RMK AO2 PK WND 19027/1818 SLP097 T03060228
KGGG 261753Z 20018G24KT 10SM BKN028 29/23 A2985 RMK AO2 PK WND 18027/1707 SLP101 T02940228 10294 20222 50001
KGGG 261653Z 19015KT 10SM BKN025 28/23 A2985 RMK AO2 SLP102 T02830228
KGGG 261553Z 20013G21KT 10SM BKN022 27/22 A2985 RMK AO2 SLP101 T02670222
KGGG 261453Z 20018G25KT 10SM SCT018 SCT023 OVC031 26/22 A2985 RMK AO2 SLP101 T02560217 51009
KGGG 261353Z 20015G21KT 10SM OVC030 24/21 A2984 RMK AO2 SLP098 T02440211
KGGG 261300Z 19012KT 10SM FEW015 OVC025 23/21 A2983 RMK AO2 T02280211
KGGG 261253Z 20010G18KT 10SM OVC013 23/21 A2983 RMK AO2 SLP095 T02280206
KGGG 261153Z 20010KT 10SM OVC013 22/20 A2982 RMK AO2 SLP091 T02220200 10222 20211 53015
KGGG 261117Z 20012G19KT 10SM OVC014 22/20 A2981 RMK AO2 T02220200
KGGG 261053Z 20014G23KT 10SM OVC016 22/19 A2980 RMK AO2 SLP083 T02220194
KGGG 261012Z AUTO 20012KT 10SM BKN017 22/19 A2979 RMK AO2 T02170194
KGGG 260953Z AUTO 19013KT 10SM CLR 21/19 A2979 RMK AO2 SLP080 T02110194
KGGG 260853Z AUTO 19009KT 10SM CLR 21/18 A2978 RMK AO2 SLP075 T02110183 53011
KGGG 260753Z AUTO 18011KT 10SM CLR 21/17 A2976 RMK AO2 SLP071 T02110172
KGGG 260653Z AUTO 18011KT 10SM CLR 22/16 A2975 RMK AO2 SLP066 T02170161
KGGG 260553Z AUTO 17011KT 10SM CLR 22/15 A2974 RMK AO2 SLP065 T02220150 10289 20222 403110128 51009
KGGG 260453Z AUTO 18012KT 10SM CLR 23/16 A2974 RMK AO2 SLP064 T02330156
KGGG 260353Z AUTO 17010KT 10SM CLR 24/18 A2973 RMK AO2 SLP063 T02390178
KGGG 260253Z AUTO 16013KT 10SM CLR 25/19 A2972 RMK AO2 SLP056 T02500189 53015
KGGG 260153Z 15005KT 10SM CLR 24/19 A2970 RMK AO2 SLP050 T02390189
KGGG 260053Z 16008KT 10SM CLR 27/18 A2967 RMK AO2 SLP043 T02720183
KGGG 252353Z 16009KT 10SM CLR 29/18 A2967 RMK AO2 SLP042 T02890178 10311 20289 58016
KGGG 252253Z 19015KT 10SM CLR 30/18 A2969 RMK AO2 SLP050 T03000178
KGGG 252153Z 19017G24KT 10SM CLR 31/18 A2971 RMK AO2 SLP055 T03060178
KGGG 252053Z 18016G21KT 10SM CLR 31/17 A2972 RMK AO2 SLP058 T03060172 58016
KGGG 251953Z 20015KT 10SM CLR 30/18 A2973 RMK AO2 SLP064 T03000178
KGGG 251853Z 18014G21KT 10SM CLR 29/17 A2975 RMK AO2 SLP070 T02890167
KGGG 251753Z 18013KT 10SM CLR 29/16 A2976 RMK AO2 SLP074 T02890156 10289 20144 56010
KGGG 251653Z 18015G19KT 10SM CLR 27/16 A2977 RMK AO2 SLP077 T02720156
KGGG 251553Z 19013KT 10SM CLR 26/16 A2978 RMK AO2 SLP080 T02560156
KGGG 251453Z 17013KT 10SM CLR 23/14 A2980 RMK AO2 SLP087 T02330139 58004
KGGG 251353Z 16010KT 10SM CLR 21/13 A2981 RMK AO2 SLP091 T02060133
KGGG 251253Z 16009KT 10SM CLR 17/13 A2980 RMK AO2 SLP089 T01720128
KGGG 251153Z 15007KT 10SM CLR 14/12 A2981 RMK AO2 SLP090 T01440122 10150 20128 53021
KGGG 251053Z 13006KT 10SM CLR 14/12 A2978 RMK AO2 SLP079 T01390117
KGGG 250953Z AUTO 15006KT 10SM CLR 13/12 A2977 RMK AO2 SLP079 T01330117


Page loaded:  20:54 UTC  |   01:54 PM Pacific  |   02:54 PM Mountain  |   03:54 PM Central  |   04:54 PM Eastern

 

ADVISORIES

FORECASTS

FORECASTS

OBSERVATIONS

USER TOOLS

ABOUT US